sensor_id;sensor_type;location;lat;lon;timestamp;pressure;altitude;pressure_sealevel;temperature;humidity
13732;BME280;6937;56.096;12.664;2022-09-09T00:00:41;101307.72;;;15.15;100.00
13732;BME280;6937;56.096;12.664;2022-09-09T00:03:16;101337.13;;;15.18;100.00
13732;BME280;6937;56.096;12.664;2022-09-09T00:05:59;101329.41;;;15.13;100.00
13732;BME280;6937;56.096;12.664;2022-09-09T00:09:08;101246.22;;;14.56;100.00
13732;BME280;6937;56.096;12.664;2022-09-09T00:11:41;101343.59;;;15.04;100.00
13732;BME280;6937;56.096;12.664;2022-09-09T00:14:14;101293.28;;;14.62;100.00
13732;BME280;6937;56.096;12.664;2022-09-09T00:16:47;101291.22;;;14.54;100.00
13732;BME280;6937;56.096;12.664;2022-09-09T00:19:24;101380.22;;;14.95;100.00
13732;BME280;6937;56.096;12.664;2022-09-09T00:24:42;101402.25;;;14.89;100.00
13732;BME280;6937;56.096;12.664;2022-09-09T00:27:17;101379.63;;;14.81;100.00
13732;BME280;6937;56.096;12.664;2022-09-09T00:29:53;101387.81;;;14.79;100.00
13732;BME280;6937;56.096;12.664;2022-09-09T00:32:21;101285.69;;;14.22;100.00
13732;BME280;6937;56.096;12.664;2022-09-09T00:34:56;101362.25;;;14.74;100.00
13732;BME280;6937;56.096;12.664;2022-09-09T00:37:25;101289.34;;;14.21;100.00
13732;BME280;6937;56.096;12.664;2022-09-09T00:39:53;101367.25;;;14.78;100.00
13732;BME280;6937;56.096;12.664;2022-09-09T00:45:48;101375.56;;;14.86;100.00
13732;BME280;6937;56.096;12.664;2022-09-09T00:48:18;101380.59;;;14.91;100.00
13732;BME280;6937;56.096;12.664;2022-09-09T00:51:02;101342.56;;;14.84;100.00
13732;BME280;6937;56.096;12.664;2022-09-09T00:53:39;101352.06;;;14.88;100.00
13732;BME280;6937;56.096;12.664;2022-09-09T00:56:16;101354.03;;;14.86;100.00
13732;BME280;6937;56.096;12.664;2022-09-09T01:01:36;101257.94;;;14.33;100.00
13732;BME280;6937;56.096;12.664;2022-09-09T01:04:09;101300.38;;;14.51;100.00
13732;BME280;6937;56.096;12.664;2022-09-09T01:06:41;101360.63;;;14.93;100.00
13732;BME280;6937;56.096;12.664;2022-09-09T01:12:45;101257.22;;;14.31;100.00
13732;BME280;6937;56.096;12.664;2022-09-09T01:15:14;101369.22;;;14.87;100.00
13732;BME280;6937;56.096;12.664;2022-09-09T01:28:11;101385.97;;;14.80;100.00
13732;BME280;6937;56.096;12.664;2022-09-09T01:30:40;101317.38;;;14.41;100.00
13732;BME280;6937;56.096;12.664;2022-09-09T01:33:16;101389.41;;;14.82;100.00
13732;BME280;6937;56.096;12.664;2022-09-09T01:35:54;101314.31;;;14.34;100.00
13732;BME280;6937;56.096;12.664;2022-09-09T01:38:21;101389.66;;;14.79;100.00
13732;BME280;6937;56.096;12.664;2022-09-09T01:40:47;101311.44;;;14.25;100.00
13732;BME280;6937;56.096;12.664;2022-09-09T01:43:14;101297.78;;;14.17;100.00
13732;BME280;6937;56.096;12.664;2022-09-09T01:45:40;101371.44;;;14.60;100.00
13732;BME280;6937;56.096;12.664;2022-09-09T01:48:07;101422.28;;;14.63;100.00
13732;BME280;6937;56.096;12.664;2022-09-09T01:50:32;101438.94;;;14.57;100.00
13732;BME280;6937;56.096;12.664;2022-09-09T01:52:59;101451.66;;;14.77;100.00
13732;BME280;6937;56.096;12.664;2022-09-09T01:55:33;101438.44;;;14.63;100.00
13732;BME280;6937;56.096;12.664;2022-09-09T01:58:34;101435.47;;;14.55;100.00
13732;BME280;6937;56.096;12.664;2022-09-09T02:01:08;101422.50;;;14.03;100.00
13732;BME280;6937;56.096;12.664;2022-09-09T02:03:36;101548.13;;;14.60;100.00
13732;BME280;6937;56.096;12.664;2022-09-09T02:06:34;101568.44;;;14.64;100.00
13732;BME280;6937;56.096;12.664;2022-09-09T02:09:00;101531.53;;;14.18;100.00
13732;BME280;6937;56.096;12.664;2022-09-09T02:11:28;101579.59;;;14.35;100.00
13732;BME280;6937;56.096;12.664;2022-09-09T02:14:00;101672.97;;;14.81;100.00
13732;BME280;6937;56.096;12.664;2022-09-09T02:16:42;101707.59;;;14.85;100.00
13732;BME280;6937;56.096;12.664;2022-09-09T02:19:39;101675.16;;;14.76;100.00
13732;BME280;6937;56.096;12.664;2022-09-09T02:22:08;101647.06;;;14.20;100.00
13732;BME280;6937;56.096;12.664;2022-09-09T02:24:39;101752.38;;;14.63;100.00
13732;BME280;6937;56.096;12.664;2022-09-09T02:27:06;101822.31;;;14.75;100.00
13732;BME280;6937;56.096;12.664;2022-09-09T02:29:40;101831.97;;;14.78;100.00
13732;BME280;6937;56.096;12.664;2022-09-09T02:32:14;101847.25;;;14.77;100.00
13732;BME280;6937;56.096;12.664;2022-09-09T02:34:44;101860.72;;;14.77;100.00
13732;BME280;6937;56.096;12.664;2022-09-09T02:37:11;101839.94;;;14.43;100.00
13732;BME280;6937;56.096;12.664;2022-09-09T02:39:37;101914.13;;;14.71;100.00
13732;BME280;6937;56.096;12.664;2022-09-09T02:42:04;101959.75;;;14.85;100.00
13732;BME280;6937;56.096;12.664;2022-09-09T02:44:30;101998.09;;;15.01;100.00
13732;BME280;6937;56.096;12.664;2022-09-09T02:52:29;102042.59;;;15.07;100.00
13732;BME280;6937;56.096;12.664;2022-09-09T02:54:59;102051.72;;;15.04;100.00
13732;BME280;6937;56.096;12.664;2022-09-09T02:57:30;102075.00;;;15.05;100.00
13732;BME280;6937;56.096;12.664;2022-09-09T02:59:58;102059.03;;;14.89;100.00
13732;BME280;6937;56.096;12.664;2022-09-09T03:02:24;102094.47;;;15.09;100.00
13732;BME280;6937;56.096;12.664;2022-09-09T03:04:50;102084.47;;;14.98;100.00
13732;BME280;6937;56.096;12.664;2022-09-09T03:07:17;102083.28;;;15.02;100.00
13732;BME280;6937;56.096;12.664;2022-09-09T03:09:43;102064.13;;;14.94;100.00
13732;BME280;6937;56.096;12.664;2022-09-09T03:12:09;102066.38;;;14.87;100.00
13732;BME280;6937;56.096;12.664;2022-09-09T03:14:36;102058.31;;;14.87;100.00
13732;BME280;6937;56.096;12.664;2022-09-09T03:17:04;101993.13;;;14.44;100.00
13732;BME280;6937;56.096;12.664;2022-09-09T03:19:29;102047.50;;;14.62;100.00
13732;BME280;6937;56.096;12.664;2022-09-09T03:21:55;102074.56;;;14.73;100.00
13732;BME280;6937;56.096;12.664;2022-09-09T03:24:20;101992.19;;;14.19;100.00
13732;BME280;6937;56.096;12.664;2022-09-09T03:26:47;102119.09;;;14.65;100.00
13732;BME280;6937;56.096;12.664;2022-09-09T03:29:12;102107.94;;;14.44;100.00
13732;BME280;6937;56.096;12.664;2022-09-09T03:31:39;102040.97;;;14.00;100.00
13732;BME280;6937;56.096;12.664;2022-09-09T03:34:04;102172.25;;;14.61;100.00
13732;BME280;6937;56.096;12.664;2022-09-09T03:36:30;102196.47;;;14.61;100.00
13732;BME280;6937;56.096;12.664;2022-09-09T03:38:56;102147.28;;;14.18;100.00
13732;BME280;6937;56.096;12.664;2022-09-09T03:41:22;102231.56;;;14.60;100.00
13732;BME280;6937;56.096;12.664;2022-09-09T03:43:50;102217.66;;;14.53;100.00
13732;BME280;6937;56.096;12.664;2022-09-09T03:46:17;102247.59;;;14.61;100.00
13732;BME280;6937;56.096;12.664;2022-09-09T03:48:42;102252.69;;;14.66;100.00
13732;BME280;6937;56.096;12.664;2022-09-09T03:51:07;102250.84;;;14.66;100.00
13732;BME280;6937;56.096;12.664;2022-09-09T03:53:33;102131.13;;;14.06;100.00
13732;BME280;6937;56.096;12.664;2022-09-09T03:55:59;102204.13;;;14.40;100.00
13732;BME280;6937;56.096;12.664;2022-09-09T03:58:25;102247.69;;;14.60;100.00
13732;BME280;6937;56.096;12.664;2022-09-09T04:01:00;102253.66;;;14.65;100.00
13732;BME280;6937;56.096;12.664;2022-09-09T04:03:26;102259.03;;;14.65;100.00
13732;BME280;6937;56.096;12.664;2022-09-09T04:05:52;102156.47;;;14.01;100.00
13732;BME280;6937;56.096;12.664;2022-09-09T04:08:18;102262.59;;;14.65;100.00
13732;BME280;6937;56.096;12.664;2022-09-09T04:10:48;102249.72;;;14.56;100.00
13732;BME280;6937;56.096;12.664;2022-09-09T04:13:14;102244.56;;;14.53;100.00
13732;BME280;6937;56.096;12.664;2022-09-09T04:15:41;102255.88;;;14.58;100.00
13732;BME280;6937;56.096;12.664;2022-09-09T04:18:06;102282.88;;;14.57;100.00
13732;BME280;6937;56.096;12.664;2022-09-09T04:20:32;102259.91;;;14.51;100.00
13732;BME280;6937;56.096;12.664;2022-09-09T04:22:58;102285.31;;;14.47;100.00
13732;BME280;6937;56.096;12.664;2022-09-09T04:25:23;102337.78;;;14.54;100.00
13732;BME280;6937;56.096;12.664;2022-09-09T04:27:54;102348.53;;;14.54;100.00
13732;BME280;6937;56.096;12.664;2022-09-09T04:30:19;102245.00;;;13.90;100.00
13732;BME280;6937;56.096;12.664;2022-09-09T04:32:46;102330.28;;;14.45;100.00
13732;BME280;6937;56.096;12.664;2022-09-09T04:35:11;102322.28;;;14.43;100.00
13732;BME280;6937;56.096;12.664;2022-09-09T04:37:36;102322.78;;;14.36;100.00
13732;BME280;6937;56.096;12.664;2022-09-09T04:40:02;102322.69;;;14.37;100.00
13732;BME280;6937;56.096;12.664;2022-09-09T04:42:27;102325.63;;;14.33;100.00
13732;BME280;6937;56.096;12.664;2022-09-09T04:44:53;102343.50;;;14.34;100.00
13732;BME280;6937;56.096;12.664;2022-09-09T04:47:19;102229.72;;;13.63;100.00
13732;BME280;6937;56.096;12.664;2022-09-09T04:49:44;102357.84;;;14.34;100.00
13732;BME280;6937;56.096;12.664;2022-09-09T04:52:10;102342.75;;;14.32;100.00
13732;BME280;6937;56.096;12.664;2022-09-09T04:54:35;102326.03;;;14.27;100.00
13732;BME280;6937;56.096;12.664;2022-09-09T04:57:00;102293.56;;;14.16;100.00
13732;BME280;6937;56.096;12.664;2022-09-09T04:59:26;102217.41;;;13.73;100.00
13732;BME280;6937;56.096;12.664;2022-09-09T05:01:51;102310.97;;;14.24;100.00
13732;BME280;6937;56.096;12.664;2022-09-09T05:04:16;102236.34;;;13.71;100.00
13732;BME280;6937;56.096;12.664;2022-09-09T05:06:42;102315.28;;;14.27;100.00
13732;BME280;6937;56.096;12.664;2022-09-09T05:09:08;102297.41;;;14.26;100.00
13732;BME280;6937;56.096;12.664;2022-09-09T05:11:33;102292.00;;;14.26;100.00
13732;BME280;6937;56.096;12.664;2022-09-09T05:14:02;102278.78;;;14.23;100.00
13732;BME280;6937;56.096;12.664;2022-09-09T05:16:27;102258.81;;;14.13;100.00
13732;BME280;6937;56.096;12.664;2022-09-09T05:18:53;102253.50;;;14.11;100.00
13732;BME280;6937;56.096;12.664;2022-09-09T05:21:22;102258.41;;;14.19;100.00
13732;BME280;6937;56.096;12.664;2022-09-09T05:23:48;102271.84;;;14.19;100.00
13732;BME280;6937;56.096;12.664;2022-09-09T05:26:19;102226.16;;;13.76;100.00
13732;BME280;6937;56.096;12.664;2022-09-09T05:28:45;102300.28;;;14.23;100.00
13732;BME280;6937;56.096;12.664;2022-09-09T05:31:13;102273.97;;;14.14;100.00
13732;BME280;6937;56.096;12.664;2022-09-09T05:33:40;102334.56;;;14.19;100.00
13732;BME280;6937;56.096;12.664;2022-09-09T05:36:11;102313.53;;;13.97;100.00
13732;BME280;6937;56.096;12.664;2022-09-09T05:38:40;102368.75;;;14.17;100.00
13732;BME280;6937;56.096;12.664;2022-09-09T05:41:07;102326.88;;;13.99;100.00
13732;BME280;6937;56.096;12.664;2022-09-09T05:43:33;102368.06;;;13.99;100.00
13732;BME280;6937;56.096;12.664;2022-09-09T05:46:11;102394.41;;;14.09;100.00
13732;BME280;6937;56.096;12.664;2022-09-09T05:48:42;102406.50;;;14.01;100.00
13732;BME280;6937;56.096;12.664;2022-09-09T05:51:10;102503.94;;;14.21;100.00
13732;BME280;6937;56.096;12.664;2022-09-09T05:53:38;102512.06;;;14.19;100.00
13732;BME280;6937;56.096;12.664;2022-09-09T05:58:33;102539.78;;;14.06;100.00
13732;BME280;6937;56.096;12.664;2022-09-09T06:01:06;102584.00;;;14.16;100.00
13732;BME280;6937;56.096;12.664;2022-09-09T06:03:36;102606.13;;;14.21;100.00
13732;BME280;6937;56.096;12.664;2022-09-09T06:06:07;102589.63;;;14.11;100.00
13732;BME280;6937;56.096;12.664;2022-09-09T06:08:35;102652.97;;;14.17;100.00
13732;BME280;6937;56.096;12.664;2022-09-09T06:11:06;102677.94;;;14.19;100.00
13732;BME280;6937;56.096;12.664;2022-09-09T06:13:31;102681.19;;;14.10;100.00
13732;BME280;6937;56.096;12.664;2022-09-09T06:15:57;102607.94;;;13.73;100.00
13732;BME280;6937;56.096;12.664;2022-09-09T06:18:23;102706.75;;;14.17;100.00
13732;BME280;6937;56.096;12.664;2022-09-09T06:21:00;102721.03;;;14.17;100.00
13732;BME280;6937;56.096;12.664;2022-09-09T06:23:27;102721.16;;;14.16;100.00
13732;BME280;6937;56.096;12.664;2022-09-09T06:28:32;102791.53;;;14.24;100.00
13732;BME280;6937;56.096;12.664;2022-09-09T06:31:02;102765.13;;;14.15;100.00
13732;BME280;6937;56.096;12.664;2022-09-09T06:33:31;102782.41;;;14.26;100.00
13732;BME280;6937;56.096;12.664;2022-09-09T06:35:56;102802.88;;;14.29;100.00
13732;BME280;6937;56.096;12.664;2022-09-09T06:38:22;102776.25;;;14.24;100.00
13732;BME280;6937;56.096;12.664;2022-09-09T06:40:53;102720.50;;;13.95;100.00
13732;BME280;6937;56.096;12.664;2022-09-09T06:43:20;102782.94;;;14.33;100.00
13732;BME280;6937;56.096;12.664;2022-09-09T06:45:56;102759.16;;;14.25;100.00
13732;BME280;6937;56.096;12.664;2022-09-09T06:48:22;102759.00;;;14.28;100.00
13732;BME280;6937;56.096;12.664;2022-09-09T06:50:47;102684.19;;;14.03;100.00
13732;BME280;6937;56.096;12.664;2022-09-09T06:53:18;102748.56;;;14.22;100.00
13732;BME280;6937;56.096;12.664;2022-09-09T06:55:45;102753.28;;;14.34;100.00
13732;BME280;6937;56.096;12.664;2022-09-09T06:58:10;102685.13;;;14.18;100.00
13732;BME280;6937;56.096;12.664;2022-09-09T07:00:36;102705.97;;;14.30;100.00
13732;BME280;6937;56.096;12.664;2022-09-09T07:03:03;102693.16;;;14.35;100.00
13732;BME280;6937;56.096;12.664;2022-09-09T07:05:29;102671.53;;;14.37;100.00
13732;BME280;6937;56.096;12.664;2022-09-09T07:07:54;102601.13;;;14.29;100.00
13732;BME280;6937;56.096;12.664;2022-09-09T07:10:20;102579.13;;;14.38;100.00
13732;BME280;6937;56.096;12.664;2022-09-09T07:12:50;102543.28;;;14.37;100.00
13732;BME280;6937;56.096;12.664;2022-09-09T07:15:17;102411.53;;;13.92;100.00
13732;BME280;6937;56.096;12.664;2022-09-09T07:17:44;102370.06;;;13.82;100.00
13732;BME280;6937;56.096;12.664;2022-09-09T07:20:09;102425.00;;;14.36;100.00
13732;BME280;6937;56.096;12.664;2022-09-09T07:22:34;102332.72;;;13.91;100.00
13732;BME280;6937;56.096;12.664;2022-09-09T07:25:00;102398.22;;;14.34;100.00
13732;BME280;6937;56.096;12.664;2022-09-09T07:27:27;102292.19;;;13.80;100.00
13732;BME280;6937;56.096;12.664;2022-09-09T07:29:52;102307.78;;;13.89;100.00
13732;BME280;6937;56.096;12.664;2022-09-09T07:32:19;102404.66;;;14.46;100.00
13732;BME280;6937;56.096;12.664;2022-09-09T07:34:45;102408.75;;;14.51;100.00
13732;BME280;6937;56.096;12.664;2022-09-09T07:37:12;102324.00;;;14.02;100.00
13732;BME280;6937;56.096;12.664;2022-09-09T07:39:39;102423.97;;;14.52;100.00
13732;BME280;6937;56.096;12.664;2022-09-09T07:42:04;102459.72;;;14.55;100.00
13732;BME280;6937;56.096;12.664;2022-09-09T07:44:30;102473.19;;;14.55;100.00
13732;BME280;6937;56.096;12.664;2022-09-09T07:46:57;102506.72;;;14.63;100.00
13732;BME280;6937;56.096;12.664;2022-09-09T07:49:23;102447.13;;;14.11;100.00
13732;BME280;6937;56.096;12.664;2022-09-09T07:51:48;102489.19;;;14.12;100.00
13732;BME280;6937;56.096;12.664;2022-09-09T07:54:16;102622.84;;;14.71;100.00
13732;BME280;6937;56.096;12.664;2022-09-09T07:56:45;102667.47;;;14.75;100.00
13732;BME280;6937;56.096;12.664;2022-09-09T07:59:10;102679.97;;;14.76;100.00
13732;BME280;6937;56.096;12.664;2022-09-09T08:01:42;102712.09;;;14.79;100.00
13732;BME280;6937;56.096;12.664;2022-09-09T08:04:13;102727.44;;;14.77;100.00
13732;BME280;6937;56.096;12.664;2022-09-09T08:06:44;102726.09;;;14.70;100.00
13732;BME280;6937;56.096;12.664;2022-09-09T08:09:11;102761.00;;;14.72;100.00
13732;BME280;6937;56.096;12.664;2022-09-09T08:11:37;102779.78;;;14.73;100.00
13732;BME280;6937;56.096;12.664;2022-09-09T08:14:03;102828.81;;;14.78;100.00
13732;BME280;6937;56.096;12.664;2022-09-09T08:16:31;102832.19;;;14.82;100.00
13732;BME280;6937;56.096;12.664;2022-09-09T08:18:57;102843.94;;;14.81;100.00
13732;BME280;6937;56.096;12.664;2022-09-09T08:21:25;102878.47;;;14.88;100.00
13732;BME280;6937;56.096;12.664;2022-09-09T08:23:53;102901.00;;;14.87;100.00
13732;BME280;6937;56.096;12.664;2022-09-09T08:26:21;102905.94;;;14.95;100.00
13732;BME280;6937;56.096;12.664;2022-09-09T08:28:49;102911.34;;;14.95;100.00
13732;BME280;6937;56.096;12.664;2022-09-09T08:31:21;102929.06;;;14.99;100.00
13732;BME280;6937;56.096;12.664;2022-09-09T08:33:48;102939.84;;;14.99;100.00
13732;BME280;6937;56.096;12.664;2022-09-09T08:36:16;102943.41;;;14.99;100.00
13732;BME280;6937;56.096;12.664;2022-09-09T08:38:42;102953.88;;;15.04;100.00
13732;BME280;6937;56.096;12.664;2022-09-09T08:50:25;102969.88;;;15.07;100.00
13732;BME280;6937;56.096;12.664;2022-09-09T08:55:32;102907.72;;;14.63;100.00
13732;BME280;6937;56.096;12.664;2022-09-09T08:58:09;102997.44;;;15.12;100.00
13732;BME280;6937;56.096;12.664;2022-09-09T09:00:50;102917.72;;;14.61;100.00
13732;BME280;6937;56.096;12.664;2022-09-09T09:08:57;103021.06;;;15.23;100.00
13732;BME280;6937;56.096;12.664;2022-09-09T09:11:24;103037.94;;;15.26;100.00
13732;BME280;6937;56.096;12.664;2022-09-09T09:13:57;103035.53;;;15.22;100.00
13732;BME280;6937;56.096;12.664;2022-09-09T09:16:33;102996.81;;;15.07;100.00
13732;BME280;6937;56.096;12.664;2022-09-09T09:19:00;103063.94;;;15.43;100.00
13732;BME280;6937;56.096;12.664;2022-09-09T09:21:44;103078.34;;;15.59;100.00
13732;BME280;6937;56.096;12.664;2022-09-09T09:24:18;103001.75;;;15.15;100.00
13732;BME280;6937;56.096;12.664;2022-09-09T09:26:44;103084.69;;;15.74;100.00
13732;BME280;6937;56.096;12.664;2022-09-09T09:29:15;102981.53;;;15.23;100.00
13732;BME280;6937;56.096;12.664;2022-09-09T09:32:01;103050.41;;;15.76;100.00
13732;BME280;6937;56.096;12.664;2022-09-09T09:34:28;103046.69;;;15.63;100.00
13732;BME280;6937;56.096;12.664;2022-09-09T09:36:59;102985.59;;;15.30;100.00
13732;BME280;6937;56.096;12.664;2022-09-09T09:39:29;103054.84;;;15.77;100.00
13732;BME280;6937;56.096;12.664;2022-09-09T09:41:55;103061.88;;;15.79;100.00
13732;BME280;6937;56.096;12.664;2022-09-09T09:44:31;103092.03;;;16.02;100.00
13732;BME280;6937;56.096;12.664;2022-09-09T09:47:22;103055.84;;;16.06;100.00
13732;BME280;6937;56.096;12.664;2022-09-09T09:49:53;103056.63;;;16.08;100.00
13732;BME280;6937;56.096;12.664;2022-09-09T09:52:23;103052.59;;;16.15;100.00
13732;BME280;6937;56.096;12.664;2022-09-09T09:54:50;102936.50;;;15.57;100.00
13732;BME280;6937;56.096;12.664;2022-09-09T09:57:18;103004.13;;;16.13;100.00
13732;BME280;6937;56.096;12.664;2022-09-09T09:59:44;102977.25;;;16.12;100.00
13732;BME280;6937;56.096;12.664;2022-09-09T10:02:23;102963.38;;;16.18;100.00
13732;BME280;6937;56.096;12.664;2022-09-09T10:05:05;102928.03;;;16.22;100.00
13732;BME280;6937;56.096;12.664;2022-09-09T10:07:34;102916.75;;;16.30;100.00
13732;BME280;6937;56.096;12.664;2022-09-09T10:10:01;102899.88;;;16.40;100.00
13732;BME280;6937;56.096;12.664;2022-09-09T10:26:23;102519.63;;;16.36;100.00
13732;BME280;6937;56.096;12.664;2022-09-09T10:29:43;102520.75;;;16.84;100.00
13732;BME280;6937;56.096;12.664;2022-09-09T10:37:05;102241.03;;;16.69;100.00
13732;BME280;6937;56.096;12.664;2022-09-09T10:39:39;102248.53;;;17.24;100.00
13732;BME280;6937;56.096;12.664;2022-09-09T10:42:15;102196.47;;;17.33;100.00
13732;BME280;6937;56.096;12.664;2022-09-09T10:45:02;102104.22;;;17.37;100.00
13732;BME280;6937;56.096;12.664;2022-09-09T10:48:08;102008.28;;;17.43;100.00
13732;BME280;6937;56.096;12.664;2022-09-09T10:50:45;101809.00;;;16.91;100.00
13732;BME280;6937;56.096;12.664;2022-09-09T10:55:51;101750.69;;;17.52;100.00
13732;BME280;6937;56.096;12.664;2022-09-09T10:58:28;101616.09;;;17.25;100.00
13732;BME280;6937;56.096;12.664;2022-09-09T11:00:59;101556.81;;;17.54;100.00
13732;BME280;6937;56.096;12.664;2022-09-09T11:03:28;101440.66;;;17.33;100.00
13732;BME280;6937;56.096;12.664;2022-09-09T11:08:31;101355.09;;;17.72;100.00
13732;BME280;6937;56.096;12.664;2022-09-09T11:11:21;101272.84;;;17.84;100.00
13732;BME280;6937;56.096;12.664;2022-09-09T11:16:30;101147.94;;;17.99;100.00
13732;BME280;6937;56.096;12.664;2022-09-09T11:21:47;100996.84;;;18.04;100.00
13732;BME280;6937;56.096;12.664;2022-09-09T11:24:35;100951.34;;;18.17;100.00
13732;BME280;6937;56.096;12.664;2022-09-09T11:27:13;100892.84;;;18.16;100.00
13732;BME280;6937;56.096;12.664;2022-09-09T11:38:23;100732.38;;;18.49;100.00
13732;BME280;6937;56.096;12.664;2022-09-09T11:41:02;100688.38;;;18.39;100.00
13732;BME280;6937;56.096;12.664;2022-09-09T11:43:31;100667.38;;;18.41;100.00
13732;BME280;6937;56.096;12.664;2022-09-09T11:46:00;100658.28;;;18.50;100.00
13732;BME280;6937;56.096;12.664;2022-09-09T11:48:41;100555.34;;;18.10;100.00
13732;BME280;6937;56.096;12.664;2022-09-09T11:51:26;100583.91;;;18.54;100.00
13732;BME280;6937;56.096;12.664;2022-09-09T11:56:29;100585.97;;;18.85;100.00
13732;BME280;6937;56.096;12.664;2022-09-09T11:58:59;100579.53;;;19.10;100.00
13732;BME280;6937;56.096;12.664;2022-09-09T12:07:39;100493.53;;;19.12;100.00
13732;BME280;6937;56.096;12.664;2022-09-09T12:12:35;100504.03;;;18.99;100.00
13732;BME280;6937;56.096;12.664;2022-09-09T12:15:17;100508.75;;;19.13;100.00
13732;BME280;6937;56.096;12.664;2022-09-09T12:17:48;100525.84;;;19.29;100.00
13732;BME280;6937;56.096;12.664;2022-09-09T12:28:22;100706.56;;;19.37;100.00
13732;BME280;6937;56.096;12.664;2022-09-09T12:31:00;100646.94;;;18.97;100.00
13732;BME280;6937;56.096;12.664;2022-09-09T12:33:37;100766.56;;;19.66;100.00
13732;BME280;6937;56.096;12.664;2022-09-09T12:36:03;100744.88;;;19.50;100.00
13732;BME280;6937;56.096;12.664;2022-09-09T12:38:36;100665.72;;;18.98;100.00
13732;BME280;6937;56.096;12.664;2022-09-09T12:41:02;100716.50;;;19.12;100.00
13732;BME280;6937;56.096;12.664;2022-09-09T12:43:28;100758.22;;;19.19;100.00
13732;BME280;6937;56.096;12.664;2022-09-09T12:45:57;100753.63;;;19.12;100.00
13732;BME280;6937;56.096;12.664;2022-09-09T12:48:37;100779.38;;;19.32;100.00
13732;BME280;6937;56.096;12.664;2022-09-09T12:51:07;100784.34;;;19.45;100.00
13732;BME280;6937;56.096;12.664;2022-09-09T12:53:41;100727.34;;;19.12;100.00
13732;BME280;6937;56.096;12.664;2022-09-09T12:56:09;100795.19;;;19.61;100.00
13732;BME280;6937;56.096;12.664;2022-09-09T12:58:45;100797.59;;;19.72;100.00
13732;BME280;6937;56.096;12.664;2022-09-09T13:01:22;100796.06;;;19.86;100.00
13732;BME280;6937;56.096;12.664;2022-09-09T13:03:48;100733.19;;;19.50;100.00
13732;BME280;6937;56.096;12.664;2022-09-09T13:06:19;100788.63;;;19.71;100.00
13732;BME280;6937;56.096;12.664;2022-09-09T13:08:45;100800.31;;;19.72;100.00
13732;BME280;6937;56.096;12.664;2022-09-09T13:11:15;100783.53;;;19.52;100.00
13732;BME280;6937;56.096;12.664;2022-09-09T13:13:43;100830.13;;;19.88;100.00
13732;BME280;6937;56.096;12.664;2022-09-09T13:16:54;100830.16;;;20.12;100.00
13732;BME280;6937;56.096;12.664;2022-09-09T13:19:20;100815.72;;;20.04;100.00
13732;BME280;6937;56.096;12.664;2022-09-09T13:21:47;100831.50;;;20.08;100.00
13732;BME280;6937;56.096;12.664;2022-09-09T13:24:28;100823.88;;;20.12;100.00
13732;BME280;6937;56.096;12.664;2022-09-09T13:29:53;100801.00;;;19.90;100.00
13732;BME280;6937;56.096;12.664;2022-09-09T13:32:23;100807.41;;;19.73;100.00
13732;BME280;6937;56.096;12.664;2022-09-09T13:34:59;100856.41;;;19.96;100.00
13732;BME280;6937;56.096;12.664;2022-09-09T13:37:32;100794.22;;;19.78;100.00
13732;BME280;6937;56.096;12.664;2022-09-09T13:39:59;100793.72;;;19.91;100.00
13732;BME280;6937;56.096;12.664;2022-09-09T13:42:27;100856.09;;;20.39;100.00
13732;BME280;6937;56.096;12.664;2022-09-09T13:44:54;100890.34;;;20.64;100.00
13732;BME280;6937;56.096;12.664;2022-09-09T13:47:26;100879.25;;;20.82;100.00
13732;BME280;6937;56.096;12.664;2022-09-09T13:49:53;100934.28;;;21.39;100.00
13732;BME280;6937;56.096;12.664;2022-09-09T13:52:19;100940.69;;;21.85;100.00
13732;BME280;6937;56.096;12.664;2022-09-09T13:54:51;100901.56;;;22.09;100.00
13732;BME280;6937;56.096;12.664;2022-09-09T13:57:23;100901.75;;;22.30;100.00
13732;BME280;6937;56.096;12.664;2022-09-09T13:59:51;100891.19;;;22.27;100.00
13732;BME280;6937;56.096;12.664;2022-09-09T14:02:18;100880.16;;;22.06;100.00
13732;BME280;6937;56.096;12.664;2022-09-09T14:04:44;100844.38;;;21.63;100.00
13732;BME280;6937;56.096;12.664;2022-09-09T14:07:14;100840.03;;;21.24;100.00
13732;BME280;6937;56.096;12.664;2022-09-09T14:09:41;100792.41;;;20.58;100.00
13732;BME280;6937;56.096;12.664;2022-09-09T14:12:12;100876.00;;;20.95;100.00
13732;BME280;6937;56.096;12.664;2022-09-09T14:14:40;100877.72;;;20.88;100.00
13732;BME280;6937;56.096;12.664;2022-09-09T14:17:07;100909.72;;;21.08;100.00
13732;BME280;6937;56.096;12.664;2022-09-09T14:19:32;100930.59;;;21.32;100.00
13732;BME280;6937;56.096;12.664;2022-09-09T14:21:58;100935.63;;;21.43;100.00
13732;BME280;6937;56.096;12.664;2022-09-09T14:24:23;100891.56;;;21.17;100.00
13732;BME280;6937;56.096;12.664;2022-09-09T14:26:50;100870.44;;;20.80;100.00
13732;BME280;6937;56.096;12.664;2022-09-09T14:29:15;100805.38;;;20.23;100.00
13732;BME280;6937;56.096;12.664;2022-09-09T14:31:41;100885.25;;;20.69;100.00
13732;BME280;6937;56.096;12.664;2022-09-09T14:34:06;100885.38;;;20.76;100.00
13732;BME280;6937;56.096;12.664;2022-09-09T14:36:32;100941.16;;;21.19;100.00
13732;BME280;6937;56.096;12.664;2022-09-09T14:38:58;100917.38;;;21.21;100.00
13732;BME280;6937;56.096;12.664;2022-09-09T14:41:24;100942.94;;;21.43;100.00
13732;BME280;6937;56.096;12.664;2022-09-09T14:43:50;100932.84;;;21.59;100.00
13732;BME280;6937;56.096;12.664;2022-09-09T14:46:18;100891.19;;;21.59;100.00